Watson, Missouri
Current Conditions -  °F | °C
As of 3:35 PM on Friday 24 Oct 2014 (Local Time) from KAFK Reporting Station
Clear Clear  
Wind Chill: 75°   Ceiling: Unl
Heat Index: 75°   Visibility: 10mi
Dew Point: 57°   Wind: 8mph
Humidity: 53%   Direction: 230°SW
Pressure: 29.9"   Gusts: NA
Location:  40.48°N, 95.62°W
Report Text: KAFK 242035Z AUTO 23007KT 10SM CLR 24/14 A2990 RMK AO2 T02410140
Loading
Personal Weather Stations






























Interactive Weather Map
Tropical Storm Tracking
New forecast layout! Learn more

10-Day Weather Forecast

Advertisements
Track Severe Weather on mobile